createdAt,value
2022-08-26T00:01:55.544Z,41.52
2022-08-26T00:04:25.353Z,41.05
2022-08-26T00:06:56.624Z,41.56
2022-08-26T00:09:25.253Z,42.60
2022-08-26T00:11:53.474Z,41.71
2022-08-26T00:14:21.687Z,43.70
2022-08-26T00:16:49.002Z,43.04
2022-08-26T00:19:20.408Z,42.30
2022-08-26T00:21:48.731Z,41.84
2022-08-26T00:24:18.192Z,41.32
2022-08-26T00:26:45.537Z,42.50
2022-08-26T00:29:13.751Z,43.77
2022-08-26T00:31:42.700Z,44.23
2022-08-26T00:34:12.388Z,44.04
2022-08-26T00:36:40.935Z,43.86
2022-08-26T00:39:08.373Z,43.50
2022-08-26T00:41:38.687Z,43.26
2022-08-26T00:44:05.991Z,42.94
2022-08-26T00:46:36.962Z,42.86
2022-08-26T00:49:11.693Z,42.87
2022-08-26T00:51:56.322Z,43.08
2022-08-26T00:54:27.313Z,42.94
2022-08-26T00:57:02.505Z,42.83
2022-08-26T00:59:33.158Z,42.85
2022-08-26T01:02:02.950Z,43.19
2022-08-26T01:04:33.515Z,43.19
2022-08-26T01:07:00.999Z,43.56
2022-08-26T01:09:28.324Z,43.56
2022-08-26T01:11:59.168Z,44.18
2022-08-26T01:14:29.976Z,43.82
2022-08-26T01:16:57.146Z,43.92
2022-08-26T01:19:31.130Z,43.07
2022-08-26T01:22:14.255Z,42.92
2022-08-26T01:24:41.776Z,43.31
2022-08-26T01:27:12.524Z,43.24
2022-08-26T01:29:42.774Z,43.49
2022-08-26T01:32:14.551Z,43.30
2022-08-26T01:34:41.707Z,43.22
2022-08-26T01:37:17.095Z,44.22
2022-08-26T01:39:48.861Z,43.47
2022-08-26T01:42:17.737Z,43.35
2022-08-26T01:44:54.095Z,42.90
2022-08-26T01:47:24.311Z,42.70
2022-08-26T01:49:54.535Z,43.17
2022-08-26T01:52:28.656Z,43.67
2022-08-26T01:54:58.921Z,44.04
2022-08-26T01:57:26.681Z,43.72
2022-08-26T01:59:58.460Z,43.71
2022-08-26T02:02:26.307Z,43.10
2022-08-26T02:04:59.565Z,43.53
2022-08-26T02:07:27.791Z,43.54
2022-08-26T02:09:55.115Z,43.77
2022-08-26T02:12:22.385Z,43.58
2022-08-26T02:14:55.827Z,43.58
2022-08-26T02:17:44.662Z,44.01
2022-08-26T02:20:15.716Z,44.52
2022-08-26T02:22:45.253Z,45.57
2022-08-26T02:25:25.140Z,44.87
2022-08-26T02:27:52.575Z,44.66
2022-08-26T02:30:24.977Z,44.60
2022-08-26T02:32:54.864Z,44.39
2022-08-26T02:35:23.839Z,44.36
2022-08-26T02:37:52.009Z,44.39
2022-08-26T02:40:25.924Z,44.00
2022-08-26T02:42:55.868Z,44.38
2022-08-26T02:45:24.662Z,45.00
2022-08-26T02:47:52.469Z,44.56
2022-08-26T02:50:20.619Z,45.23
2022-08-26T02:52:48.574Z,44.88
2022-08-26T02:55:16.003Z,44.14
2022-08-26T02:57:45.197Z,44.64
2022-08-26T03:00:14.843Z,44.66
2022-08-26T03:02:41.859Z,44.33
2022-08-26T03:05:09.983Z,44.33
2022-08-26T03:07:37.108Z,44.51
2022-08-26T03:10:08.534Z,43.80
2022-08-26T03:12:36.127Z,44.74
2022-08-26T03:15:03.363Z,43.69
2022-08-26T03:17:46.624Z,43.53
2022-08-26T03:20:15.488Z,42.84
2022-08-26T03:22:42.892Z,42.31
2022-08-26T03:25:12.203Z,42.21
2022-08-26T03:27:39.154Z,42.20
2022-08-26T03:30:25.664Z,42.72
2022-08-26T03:32:53.496Z,43.07
2022-08-26T03:35:20.335Z,42.84
2022-08-26T03:37:49.425Z,42.77
2022-08-26T03:40:16.551Z,42.72
2022-08-26T03:42:47.829Z,42.98
2022-08-26T03:45:17.128Z,42.11
2022-08-26T03:47:44.778Z,41.82
2022-08-26T03:50:15.116Z,41.17
2022-08-26T03:52:44.027Z,41.92
2022-08-26T03:55:11.406Z,41.87
2022-08-26T03:57:38.132Z,41.40
2022-08-26T04:00:08.907Z,41.40
2022-08-26T04:02:35.807Z,41.82
2022-08-26T04:05:02.941Z,41.72
2022-08-26T04:07:31.953Z,41.19
2022-08-26T04:09:59.400Z,41.65
2022-08-26T04:12:26.246Z,41.66
2022-08-26T04:14:53.843Z,41.58
2022-08-26T04:17:25.089Z,41.33
2022-08-26T04:19:53.605Z,41.31
2022-08-26T04:22:24.847Z,40.87
2022-08-26T04:24:52.388Z,40.87
2022-08-26T04:27:19.484Z,40.50
2022-08-26T04:29:47.789Z,40.91
2022-08-26T04:32:16.498Z,40.59
2022-08-26T04:34:43.391Z,39.92
2022-08-26T04:37:12.267Z,39.46
2022-08-26T04:39:39.144Z,39.83
2022-08-26T04:42:06.347Z,39.37
2022-08-26T04:44:35.974Z,39.36
2022-08-26T04:47:04.713Z,39.16
2022-08-26T04:49:35.477Z,39.30
2022-08-26T04:52:04.140Z,38.57
2022-08-26T04:54:31.627Z,38.63
2022-08-26T04:56:59.534Z,38.71
2022-08-26T04:59:26.493Z,38.05
2022-08-26T05:01:57.360Z,38.30
2022-08-26T05:04:24.413Z,38.09
2022-08-26T05:06:54.840Z,38.14
2022-08-26T05:09:25.441Z,38.22
2022-08-26T05:11:52.504Z,38.37
2022-08-26T05:14:23.313Z,38.05
2022-08-26T05:16:50.535Z,37.86
2022-08-26T05:19:18.904Z,38.34
2022-08-26T05:21:47.839Z,38.65
2022-08-26T05:24:15.785Z,38.70
2022-08-26T05:26:44.545Z,38.60
2022-08-26T05:29:11.948Z,38.27
2022-08-26T05:31:38.829Z,38.55
2022-08-26T05:34:05.996Z,38.90
2022-08-26T05:36:36.388Z,38.39
2022-08-26T05:39:05.902Z,38.37
2022-08-26T05:41:36.295Z,38.25
2022-08-26T05:44:08.495Z,38.89
2022-08-26T05:46:37.252Z,39.30
2022-08-26T05:49:06.116Z,39.49
2022-08-26T05:51:42.096Z,39.58
2022-08-26T05:54:10.455Z,39.09
2022-08-26T05:56:38.870Z,39.12
2022-08-26T05:59:06.659Z,39.48
2022-08-26T06:01:42.540Z,38.60
2022-08-26T06:04:10.011Z,38.94
2022-08-26T06:06:41.195Z,39.34
2022-08-26T06:09:10.958Z,39.35
2022-08-26T06:11:38.934Z,38.80
2022-08-26T06:14:07.914Z,39.14
2022-08-26T06:16:38.740Z,39.68
2022-08-26T06:19:11.496Z,39.26
2022-08-26T06:21:40.390Z,39.65
2022-08-26T06:24:30.137Z,40.20
2022-08-26T06:27:01.180Z,39.11
2022-08-26T06:29:30.022Z,39.67
2022-08-26T06:31:58.114Z,39.50
2022-08-26T06:34:30.266Z,39.53
2022-08-26T06:36:59.763Z,39.81
2022-08-26T06:39:30.800Z,38.99
2022-08-26T06:41:59.021Z,39.32
2022-08-26T06:44:27.867Z,38.95
2022-08-26T06:46:55.003Z,39.03
2022-08-26T06:49:26.839Z,38.93
2022-08-26T06:51:59.405Z,38.93
2022-08-26T06:54:32.230Z,38.85
2022-08-26T06:57:00.227Z,39.08
2022-08-26T06:59:27.046Z,38.69
2022-08-26T07:01:54.688Z,38.13
2022-08-26T07:04:23.093Z,38.30
2022-08-26T07:06:52.295Z,38.32
2022-08-26T07:09:21.863Z,37.38
2022-08-26T07:11:49.565Z,37.66
2022-08-26T07:14:19.291Z,38.16
2022-08-26T07:16:49.294Z,38.16
2022-08-26T07:19:29.966Z,38.69
2022-08-26T07:22:03.810Z,37.35
2022-08-26T07:24:33.259Z,38.82
2022-08-26T07:27:05.970Z,37.32
2022-08-26T07:29:34.427Z,37.01
2022-08-26T07:32:01.565Z,38.06
2022-08-26T07:34:29.103Z,37.76
2022-08-26T07:36:57.249Z,37.05
2022-08-26T07:39:26.597Z,38.74
2022-08-26T07:41:54.021Z,37.69
2022-08-26T07:44:21.381Z,36.96
2022-08-26T07:46:52.321Z,36.95
2022-08-26T07:49:25.148Z,37.34
2022-08-26T07:51:54.454Z,36.74
2022-08-26T07:54:27.151Z,36.44
2022-08-26T07:56:55.910Z,35.88
2022-08-26T07:59:23.354Z,36.72
2022-08-26T08:01:50.334Z,36.17
2022-08-26T08:04:20.142Z,36.24
2022-08-26T08:06:52.568Z,35.22
2022-08-26T08:09:19.724Z,36.56
2022-08-26T08:11:49.754Z,36.53
2022-08-26T08:14:18.268Z,35.88
2022-08-26T08:16:51.051Z,34.68
2022-08-26T08:19:21.378Z,34.00
2022-08-26T08:21:48.865Z,35.55
2022-08-26T08:24:16.904Z,37.00
2022-08-26T08:26:43.799Z,34.67
2022-08-26T08:29:10.587Z,35.29
2022-08-26T08:31:56.924Z,33.40
2022-08-26T08:34:26.509Z,32.59
2022-08-26T08:36:54.618Z,32.32
2022-08-26T08:39:22.328Z,32.79
2022-08-26T08:42:25.738Z,32.29
2022-08-26T08:44:55.786Z,32.23
2022-08-26T08:47:35.895Z,33.23
2022-08-26T08:50:17.165Z,33.83
2022-08-26T08:52:49.965Z,33.25
2022-08-26T08:55:18.169Z,33.00
2022-08-26T08:57:45.341Z,32.77
2022-08-26T09:00:18.134Z,32.41
2022-08-26T09:03:03.520Z,31.91
2022-08-26T09:05:40.163Z,30.36
2022-08-26T09:08:23.244Z,30.29
2022-08-26T09:11:00.427Z,27.70
2022-08-26T09:13:29.189Z,28.66
2022-08-26T09:16:20.286Z,28.31
2022-08-26T09:19:05.994Z,28.45
2022-08-26T09:21:33.253Z,28.83
2022-08-26T09:24:00.690Z,30.84
2022-08-26T09:26:39.005Z,28.97
2022-08-26T09:29:14.431Z,29.01
2022-08-26T09:31:41.578Z,27.89
2022-08-26T09:34:21.133Z,27.12
2022-08-26T09:36:59.758Z,28.10
2022-08-26T09:39:37.801Z,26.65
2022-08-26T09:42:10.936Z,27.14
2022-08-26T09:45:08.368Z,25.84
2022-08-26T09:47:57.077Z,25.68
2022-08-26T09:50:36.337Z,26.07
2022-08-26T09:53:28.782Z,24.98
2022-08-26T09:56:17.227Z,25.90
2022-08-26T09:58:47.342Z,24.83
2022-08-26T10:01:32.322Z,25.08
2022-08-26T10:04:20.827Z,24.13
2022-08-26T10:06:59.822Z,24.75
2022-08-26T10:09:28.868Z,24.55
2022-08-26T10:12:06.645Z,24.71
2022-08-26T10:17:30.883Z,24.12
2022-08-26T10:20:26.426Z,25.50
2022-08-26T10:23:11.044Z,25.53
2022-08-26T10:25:49.016Z,23.57
2022-08-26T10:28:37.461Z,23.52
2022-08-26T10:31:16.575Z,22.71
2022-08-26T10:33:47.311Z,22.89
2022-08-26T10:36:52.374Z,24.18
2022-08-26T10:39:26.940Z,23.49
2022-08-26T10:42:01.539Z,24.32
2022-08-26T10:44:33.095Z,24.42
2022-08-26T10:47:12.875Z,23.06
2022-08-26T10:49:42.239Z,23.30
2022-08-26T10:52:17.942Z,23.96
2022-08-26T10:55:21.164Z,24.20
2022-08-26T10:57:57.195Z,24.45
2022-08-26T11:01:01.046Z,24.00
2022-08-26T11:03:43.568Z,22.75
2022-08-26T11:06:19.515Z,22.52
2022-08-26T11:08:50.890Z,22.36
2022-08-26T11:11:38.310Z,23.22
2022-08-26T11:14:46.042Z,23.50
2022-08-26T11:17:46.702Z,22.10
2022-08-26T11:20:22.431Z,21.77
2022-08-26T11:22:52.467Z,22.60
2022-08-26T11:25:30.913Z,21.97
2022-08-26T11:27:59.851Z,21.06
2022-08-26T11:30:58.019Z,21.28
2022-08-26T11:33:43.921Z,21.11
2022-08-26T11:36:28.017Z,21.39
2022-08-26T11:38:55.153Z,20.83
2022-08-26T11:41:24.361Z,21.14
2022-08-26T11:43:52.307Z,20.69
2022-08-26T11:46:28.663Z,19.49
2022-08-26T11:49:06.734Z,21.16
2022-08-26T11:51:40.073Z,21.09
2022-08-26T11:54:11.440Z,20.19
2022-08-26T11:56:40.447Z,20.54
2022-08-26T11:59:11.492Z,19.29
2022-08-26T12:01:43.302Z,19.74
2022-08-26T12:04:17.482Z,20.34
2022-08-26T12:06:51.115Z,20.25
2022-08-26T12:09:30.728Z,20.37
2022-08-26T12:12:12.107Z,20.11
2022-08-26T12:14:39.701Z,21.21
2022-08-26T12:17:30.100Z,20.53
2022-08-26T12:19:57.183Z,20.14
2022-08-26T12:22:27.403Z,19.48
2022-08-26T12:25:00.921Z,20.26
2022-08-26T12:27:53.085Z,20.61
2022-08-26T12:30:26.031Z,20.48
2022-08-26T12:33:19.337Z,19.91
2022-08-26T12:35:54.326Z,20.54
2022-08-26T12:38:26.011Z,19.66
2022-08-26T12:40:53.068Z,19.59
2022-08-26T12:43:49.228Z,19.51
2022-08-26T12:46:24.468Z,20.34
2022-08-26T12:48:51.367Z,19.84
2022-08-26T12:51:29.565Z,19.17
2022-08-26T12:53:58.066Z,19.81
2022-08-26T12:56:24.792Z,19.41
2022-08-26T12:59:26.271Z,19.59
2022-08-26T13:01:56.876Z,19.36
2022-08-26T13:04:46.440Z,19.39
2022-08-26T13:07:27.450Z,19.31
2022-08-26T13:09:57.263Z,19.09
2022-08-26T13:12:37.240Z,19.17
2022-08-26T13:15:06.419Z,19.20
2022-08-26T13:17:35.766Z,19.20
2022-08-26T13:20:04.440Z,19.09
2022-08-26T13:22:32.037Z,19.43
2022-08-26T13:24:58.997Z,18.20
2022-08-26T13:27:27.175Z,18.09
2022-08-26T13:29:57.098Z,19.22
2022-08-26T13:32:27.505Z,19.08
2022-08-26T13:34:56.500Z,18.54
2022-08-26T13:37:34.308Z,18.72
2022-08-26T13:40:06.033Z,18.67
2022-08-26T13:42:32.960Z,19.07
2022-08-26T13:45:01.628Z,18.60
2022-08-26T13:47:28.811Z,19.01
2022-08-26T13:49:56.393Z,18.57
2022-08-26T13:52:30.090Z,18.44
2022-08-26T13:55:00.239Z,19.03
2022-08-26T13:57:29.971Z,18.78
2022-08-26T13:59:59.111Z,18.07
2022-08-26T14:02:27.735Z,17.85
2022-08-26T14:04:55.309Z,18.26
2022-08-26T14:07:22.696Z,18.46
2022-08-26T14:09:49.667Z,18.06
2022-08-26T14:12:16.707Z,17.47
2022-08-26T14:14:43.692Z,17.82
2022-08-26T14:17:14.093Z,17.34
2022-08-26T14:19:45.092Z,17.93
2022-08-26T14:22:13.155Z,18.43
2022-08-26T14:24:39.957Z,18.66
2022-08-26T14:27:06.948Z,19.28
2022-08-26T14:29:33.801Z,19.51
2022-08-26T14:32:07.067Z,18.53
2022-08-26T14:34:33.920Z,19.35
2022-08-26T14:37:07.354Z,19.03
2022-08-26T14:39:35.858Z,19.20
2022-08-26T14:42:04.923Z,19.55
2022-08-26T14:44:33.425Z,18.84
2022-08-26T14:47:02.910Z,20.17
2022-08-26T14:49:31.531Z,20.21
2022-08-26T14:51:58.878Z,21.26
2022-08-26T14:54:26.373Z,20.78
2022-08-26T14:56:59.222Z,19.36
2022-08-26T14:59:49.819Z,18.75
2022-08-26T15:02:32.594Z,20.54
2022-08-26T15:05:02.260Z,21.32
2022-08-26T15:07:29.021Z,19.68
2022-08-26T15:09:56.087Z,21.66
2022-08-26T15:12:24.275Z,19.25
2022-08-26T15:14:51.373Z,19.09
2022-08-26T15:17:18.140Z,19.62
2022-08-26T15:19:44.970Z,19.30
2022-08-26T15:22:11.699Z,20.17
2022-08-26T15:24:38.957Z,20.03
2022-08-26T15:27:05.721Z,21.26
2022-08-26T15:29:33.117Z,20.30
2022-08-26T15:32:03.755Z,20.54
2022-08-26T15:34:31.943Z,21.29
2022-08-26T15:36:58.825Z,20.84
2022-08-26T15:39:26.153Z,20.63
2022-08-26T15:41:52.968Z,20.75
2022-08-26T15:44:19.778Z,19.43
2022-08-26T15:46:49.225Z,20.90
2022-08-26T15:49:18.504Z,20.28
2022-08-26T15:51:47.836Z,21.32
2022-08-26T15:54:16.746Z,20.69
2022-08-26T15:56:44.122Z,21.22
2022-08-26T15:59:11.887Z,21.42
2022-08-26T16:01:39.568Z,22.79
2022-08-26T16:04:06.911Z,22.05
2022-08-26T16:06:36.765Z,22.35
2022-08-26T16:09:04.993Z,22.24
2022-08-26T16:11:31.778Z,22.00
2022-08-26T16:13:58.720Z,21.81
2022-08-26T16:16:26.552Z,21.90
2022-08-26T16:18:53.889Z,22.27
2022-08-26T16:21:27.853Z,21.94
2022-08-26T16:23:56.156Z,21.98
2022-08-26T16:26:28.445Z,22.06
2022-08-26T16:28:55.350Z,22.71
2022-08-26T16:31:22.384Z,22.42
2022-08-26T16:33:49.854Z,22.51
2022-08-26T16:36:17.046Z,22.86
2022-08-26T16:38:55.481Z,22.72
2022-08-26T16:41:25.116Z,23.42
2022-08-26T16:43:52.054Z,22.58
2022-08-26T16:46:19.339Z,22.09
2022-08-26T16:48:48.843Z,22.63
2022-08-26T16:51:18.907Z,22.42
2022-08-26T16:53:47.082Z,22.41
2022-08-26T16:56:20.262Z,23.51
2022-08-26T16:58:48.683Z,22.60
2022-08-26T17:01:16.805Z,22.86
2022-08-26T17:03:43.961Z,23.33
2022-08-26T17:06:11.097Z,23.32
2022-08-26T17:08:39.863Z,23.37
2022-08-26T17:11:08.425Z,22.87
2022-08-26T17:13:36.219Z,24.55
2022-08-26T17:16:05.735Z,25.39
2022-08-26T17:18:33.454Z,24.82
2022-08-26T17:21:06.403Z,23.99
2022-08-26T17:23:33.371Z,24.50
2022-08-26T17:26:00.258Z,25.11
2022-08-26T17:28:27.048Z,24.89
2022-08-26T17:30:57.048Z,25.03
2022-08-26T17:33:25.274Z,25.01
2022-08-26T17:35:53.119Z,25.12
2022-08-26T17:38:21.242Z,24.75
2022-08-26T17:40:48.535Z,25.34
2022-08-26T17:43:15.866Z,25.02
2022-08-26T17:45:43.439Z,25.48
2022-08-26T17:48:11.361Z,25.38
2022-08-26T17:50:42.984Z,26.44
2022-08-26T17:53:18.955Z,27.47
2022-08-26T17:55:48.001Z,27.73
2022-08-26T17:58:16.097Z,27.97
2022-08-26T18:00:49.377Z,27.71
2022-08-26T18:03:16.623Z,27.75
2022-08-26T18:05:48.058Z,27.29
2022-08-26T18:08:14.985Z,27.57
2022-08-26T18:10:43.540Z,28.00
2022-08-26T18:13:13.566Z,28.48
2022-08-26T18:15:41.571Z,28.84
2022-08-26T18:18:08.822Z,28.97
2022-08-26T18:20:38.759Z,29.26
2022-08-26T18:23:05.962Z,30.45
2022-08-26T18:25:33.461Z,30.15
2022-08-26T18:28:03.236Z,29.93
2022-08-26T18:30:31.544Z,29.61
2022-08-26T18:32:58.727Z,30.34
2022-08-26T18:35:28.535Z,30.06
2022-08-26T18:37:58.548Z,30.02
2022-08-26T18:40:39.107Z,30.32
2022-08-26T18:43:05.937Z,30.90
2022-08-26T18:45:32.827Z,30.75
2022-08-26T18:47:59.748Z,30.52
2022-08-26T18:50:26.577Z,30.53
2022-08-26T18:52:53.627Z,30.64
2022-08-26T18:55:20.686Z,30.61
2022-08-26T18:57:47.588Z,30.46
2022-08-26T19:00:14.785Z,30.19
2022-08-26T19:02:41.758Z,30.12
2022-08-26T19:05:14.565Z,29.77
2022-08-26T19:07:43.062Z,29.92
2022-08-26T19:10:12.655Z,30.13
2022-08-26T19:12:39.831Z,30.94
2022-08-26T19:15:07.954Z,30.46
2022-08-26T19:17:34.921Z,30.87
2022-08-26T19:20:04.738Z,30.76
2022-08-26T19:22:31.664Z,30.50
2022-08-26T19:24:58.575Z,30.47
2022-08-26T19:27:25.397Z,30.59
2022-08-26T19:29:52.440Z,31.09
2022-08-26T19:32:24.184Z,31.54
2022-08-26T19:34:52.201Z,31.63
2022-08-26T19:37:20.230Z,31.96
2022-08-26T19:39:47.944Z,31.35
2022-08-26T19:42:14.693Z,31.08
2022-08-26T19:45:00.213Z,31.53
2022-08-26T19:47:27.310Z,31.30
2022-08-26T19:49:55.671Z,31.11
2022-08-26T19:52:24.181Z,30.97
2022-08-26T19:54:57.908Z,31.86
2022-08-26T19:57:24.926Z,31.58
2022-08-26T19:59:52.823Z,30.40
2022-08-26T20:02:20.752Z,30.74
2022-08-26T20:04:47.707Z,31.49
2022-08-26T20:07:18.125Z,31.86
2022-08-26T20:09:46.807Z,31.90
2022-08-26T20:12:14.018Z,31.74
2022-08-26T20:14:41.744Z,31.47
2022-08-26T20:17:08.803Z,32.76
2022-08-26T20:19:54.579Z,33.44
2022-08-26T20:22:22.148Z,32.30
2022-08-26T20:24:49.443Z,31.63
2022-08-26T20:27:16.337Z,32.05
2022-08-26T20:29:43.084Z,32.30
2022-08-26T20:32:11.969Z,32.27
2022-08-26T20:34:40.009Z,31.88
2022-08-26T20:37:08.463Z,32.15
2022-08-26T20:39:35.374Z,32.14
2022-08-26T20:42:03.121Z,32.51
2022-08-26T20:44:30.065Z,32.69
2022-08-26T20:46:57.245Z,32.37
2022-08-26T20:49:23.991Z,32.80
2022-08-26T20:51:51.485Z,33.29
2022-08-26T20:54:22.126Z,34.13
2022-08-26T20:56:51.469Z,34.55
2022-08-26T20:59:18.924Z,35.02
2022-08-26T21:01:46.883Z,35.88
2022-08-26T21:04:17.919Z,35.06
2022-08-26T21:06:52.300Z,34.03
2022-08-26T21:09:22.032Z,34.71
2022-08-26T21:11:49.995Z,35.50
2022-08-26T21:14:17.677Z,35.56
2022-08-26T21:16:45.731Z,34.98
2022-08-26T21:19:17.536Z,34.48
2022-08-26T21:21:46.266Z,35.01
2022-08-26T21:24:13.720Z,35.39
2022-08-26T21:26:40.721Z,35.69
2022-08-26T21:29:09.828Z,35.66
2022-08-26T21:31:42.304Z,35.33
2022-08-26T21:34:12.867Z,34.60
2022-08-26T21:36:39.924Z,34.59
2022-08-26T21:39:11.239Z,34.56
2022-08-26T21:41:40.181Z,34.84
2022-08-26T21:44:07.024Z,36.00
2022-08-26T21:46:37.232Z,36.16
2022-08-26T21:49:07.424Z,36.45
2022-08-26T21:51:37.760Z,36.63
2022-08-26T21:54:10.550Z,36.67
2022-08-26T21:56:40.853Z,36.15
2022-08-26T21:59:09.055Z,36.88
2022-08-26T22:01:36.572Z,39.94
2022-08-26T22:04:05.343Z,40.10
2022-08-26T22:06:34.915Z,39.75
2022-08-26T22:09:01.662Z,39.88
2022-08-26T22:11:28.845Z,39.31
2022-08-26T22:13:56.896Z,38.96
2022-08-26T22:16:24.998Z,38.96
2022-08-26T22:18:53.379Z,38.99
2022-08-26T22:21:24.271Z,38.40
2022-08-26T22:23:51.420Z,38.29
2022-08-26T22:26:25.359Z,38.50
2022-08-26T22:28:57.471Z,38.96
2022-08-26T22:31:37.008Z,38.36
2022-08-26T22:34:07.994Z,38.39
2022-08-26T22:36:35.403Z,38.33
2022-08-26T22:39:04.758Z,38.68
2022-08-26T22:41:32.678Z,38.61
2022-08-26T22:44:02.604Z,38.03
2022-08-26T22:46:29.556Z,38.26
2022-08-26T22:48:56.543Z,38.58
2022-08-26T22:51:23.477Z,38.29
2022-08-26T22:53:50.360Z,39.15
2022-08-26T22:56:19.050Z,38.89
2022-08-26T22:58:46.068Z,38.85
2022-08-26T23:01:13.748Z,38.76
2022-08-26T23:03:41.350Z,38.28
2022-08-26T23:06:12.308Z,38.36
2022-08-26T23:08:40.391Z,38.22
2022-08-26T23:11:09.390Z,38.28
2022-08-26T23:13:36.521Z,38.92
2022-08-26T23:16:06.965Z,38.66
2022-08-26T23:18:33.975Z,38.52
2022-08-26T23:21:00.808Z,38.43
2022-08-26T23:23:27.800Z,38.77
2022-08-26T23:25:55.759Z,41.37
2022-08-26T23:28:23.031Z,42.67
2022-08-26T23:30:50.299Z,43.21
2022-08-26T23:33:17.068Z,41.42
2022-08-26T23:35:44.013Z,40.85
2022-08-26T23:38:11.181Z,40.37
2022-08-26T23:40:41.301Z,39.99
2022-08-26T23:43:11.383Z,40.24
2022-08-26T23:45:38.746Z,40.14
2022-08-26T23:48:06.490Z,40.11
2022-08-26T23:50:52.294Z,39.64
2022-08-26T23:53:21.902Z,40.26
2022-08-26T23:55:51.904Z,40.09
2022-08-26T23:58:20.866Z,40.08
